Time;durP1;ratioP1;P1;durP2;ratioP2;P2;SDS_P1;SDS_P2;PMS_P1;PMS_P2;Temp;Humidity;BMP_temperature;BMP_pressure;BME280_temperature;BME280_humidity;BME280_pressure;Samples;Min_cycle;Max_cycle;Signal;HPM_P1;HPM_P2
2022/12/18 00:01:28;;;;;;;;;65.33;51.00;;;;;-0.53;63.30;101639.34;5014215;28;45397;-60
2022/12/18 00:03:55;;;;;;;;;60.00;48.25;;;;;-0.48;62.03;101641.22;5026062;28;45450;-57
2022/12/18 00:06:22;;;;;;;;;68.33;50.67;;;;;-0.48;62.75;101633.47;5015473;28;45562;-60
2022/12/18 00:08:48;;;;;;;;;61.00;51.25;;;;;-0.49;62.46;101623.06;5015272;28;46832;-61
2022/12/18 00:11:16;;;;;;;;;59.75;51.50;;;;;-0.46;61.62;101626.63;5015381;28;45386;-59
2022/12/18 00:13:41;;;;;;;;;57.00;50.00;;;;;-0.43;62.20;101627.53;5015413;28;45472;-58
2022/12/18 00:16:11;;;;;;;;;58.25;51.00;;;;;-0.41;61.82;101621.56;5014868;28;45532;-62
2022/12/18 00:18:36;;;;;;;;;60.00;49.25;;;;;-0.40;61.90;101627.59;5015106;28;45672;-60
2022/12/18 00:21:05;;;;;;;;;56.50;47.75;;;;;-0.36;61.55;101632.91;5027415;28;45438;-61
2022/12/18 00:23:32;;;;;;;;;66.00;50.25;;;;;-0.34;62.20;101633.81;5035126;28;45469;-61
2022/12/18 00:26:02;;;;;;;;;66.00;50.00;;;;;-0.29;61.37;101636.53;5034960;28;45581;-60
2022/12/18 00:28:27;;;;;;;;;60.50;49.50;;;;;-0.31;60.80;101636.47;5034867;28;45522;-61
2022/12/18 00:31:21;;;;;;;;;50.50;42.75;;;;;-0.32;60.51;101639.03;5033748;28;45495;-61
2022/12/18 00:33:47;;;;;;;;;67.00;52.67;;;;;-0.35;61.15;101639.84;5032891;28;45354;-59
2022/12/18 00:36:18;;;;;;;;;61.25;52.00;;;;;-0.38;61.50;101639.72;5034913;28;45666;-59
2022/12/18 00:38:45;;;;;;;;;62.00;49.00;;;;;-0.43;61.65;101649.09;5034976;28;45694;-60
2022/12/18 00:41:12;;;;;;;;;67.00;53.00;;;;;-0.46;60.30;101641.22;5034936;28;45357;-57
2022/12/18 00:43:39;;;;;;;;;54.50;44.50;;;;;-0.48;60.85;101642.94;5034840;28;45490;-58
2022/12/18 00:46:05;;;;;;;;;63.25;50.25;;;;;-0.42;62.29;101648.25;5026279;28;45416;-61
2022/12/18 00:48:31;;;;;;;;;63.33;51.00;;;;;-0.39;61.41;101658.66;5034416;28;45438;-58
2022/12/18 00:50:56;;;;;;;;;62.00;48.67;;;;;-0.45;60.23;101648.16;5034519;28;45373;-60
2022/12/18 00:53:22;;;;;;;;;67.00;54.25;;;;;-0.41;60.85;101643.94;5034347;28;45419;-58
2022/12/18 00:55:47;;;;;;;;;67.00;53.00;;;;;-0.43;60.76;101633.59;5036292;28;45619;-58
2022/12/18 00:58:15;;;;;;;;;60.00;50.00;;;;;-0.40;61.49;101638.84;5038381;28;46212;-59
2022/12/18 01:00:40;;;;;;;;;64.00;52.50;;;;;-0.46;61.73;101630.91;5036063;28;45440;-59
2022/12/18 01:03:06;;;;;;;;;63.00;52.00;;;;;-0.46;60.12;101623.16;5037726;28;45398;-59
2022/12/18 01:05:32;;;;;;;;;58.75;48.25;;;;;-0.41;61.14;101634.47;5038198;28;45627;-61
2022/12/18 01:07:58;;;;;;;;;70.67;55.33;;;;;-0.52;60.56;101625.56;5037470;28;46289;-60
2022/12/18 01:10:24;;;;;;;;;60.50;52.50;;;;;-0.51;60.19;101625.63;5038132;28;45516;-60
2022/12/18 01:12:49;;;;;;;;;63.50;51.00;;;;;-0.49;59.77;101621.34;5037242;28;45506;-61
2022/12/18 01:15:16;;;;;;;;;61.75;49.75;;;;;-0.47;59.62;101621.41;5038139;28;45646;-59
2022/12/18 01:17:42;;;;;;;;;65.25;52.00;;;;;-0.50;60.07;101619.63;5035800;28;46368;-57
2022/12/18 01:20:09;;;;;;;;;51.75;42.00;;;;;-0.53;59.36;101618.66;5023813;28;45492;-57
2022/12/18 01:22:35;;;;;;;;;60.50;50.50;;;;;-0.61;60.27;101615.00;5038196;28;45444;-60
2022/12/18 01:25:01;;;;;;;;;62.75;51.75;;;;;-0.62;59.87;101615.81;5036576;28;45685;-61
2022/12/18 01:27:26;;;;;;;;;62.75;49.25;;;;;-0.63;61.07;101619.25;5036259;28;46245;-54
2022/12/18 01:29:52;;;;;;;;;56.50;49.25;;;;;-0.62;60.81;101621.88;5037586;28;45385;-59
2022/12/18 01:32:17;;;;;;;;;64.33;53.33;;;;;-0.61;60.13;101622.75;5027950;28;45410;-59
2022/12/18 01:34:42;;;;;;;;;58.75;49.00;;;;;-0.64;59.71;101620.09;5037008;28;45516;-60
2022/12/18 01:37:08;;;;;;;;;60.50;49.25;;;;;-0.73;60.98;101619.00;5036891;28;46339;-58
2022/12/18 01:39:33;;;;;;;;;62.00;49.25;;;;;-0.76;60.98;101620.63;5037742;28;45422;-62
2022/12/18 01:42:03;;;;;;;;;62.50;48.50;;;;;-0.72;60.50;101625.06;5044576;28;45452;-58
2022/12/18 01:44:53;;;;;;;;;69.67;53.00;;;;;-0.73;60.10;101626.75;5034488;28;45479;-57
2022/12/18 01:47:29;;;;;;;;;61.67;49.67;;;;;-0.72;60.87;101613.00;5017312;28;45696;-59
2022/12/18 01:49:56;;;;;;;;;61.67;52.00;;;;;-0.67;60.09;101615.72;5032325;28;45434;-60
2022/12/18 01:52:25;;;;;;;;;60.25;51.50;;;;;-0.69;60.94;101612.22;5037700;28;45554;-60
2022/12/18 01:54:52;;;;;;;;;62.33;52.33;;;;;-0.70;61.23;101613.94;5036261;28;45590;-61
2022/12/18 01:57:18;;;;;;;;;61.67;53.67;;;;;-0.72;60.43;101606.97;5036876;28;45568;-58
2022/12/18 01:59:47;;;;;;;;;68.00;52.00;;;;;-0.75;61.01;101612.94;5036595;28;45459;-60
2022/12/18 02:02:14;;;;;;;;;66.67;53.00;;;;;-0.81;61.28;101601.53;5031634;28;45373;-57
2022/12/18 02:04:39;;;;;;;;;64.00;51.67;;;;;-0.83;60.54;101604.09;5035567;28;45527;-59
2022/12/18 02:07:34;;;;;;;;;60.50;48.25;;;;;-0.80;60.43;101605.91;5030357;28;45317;-58
2022/12/18 02:10:17;;;;;;;;;65.00;53.00;;;;;-0.83;60.29;101596.34;5014758;28;45507;-58
2022/12/18 02:12:48;;;;;;;;;65.33;52.33;;;;;-0.88;61.44;101587.59;5037328;28;45467;-58
2022/12/18 02:15:26;;;;;;;;;64.33;52.33;;;;;-0.92;60.64;101572.84;5028784;28;45476;-57
2022/12/18 02:17:54;;;;;;;;;62.67;50.33;;;;;-0.95;61.35;101581.38;5032481;28;46399;-59
2022/12/18 02:20:27;;;;;;;;;63.33;49.00;;;;;-1.01;60.58;101580.34;5037066;28;45510;-60
2022/12/18 02:23:27;;;;;;;;;62.67;53.67;;;;;-0.99;60.53;101582.16;5037122;28;45385;-59
2022/12/18 02:26:19;;;;;;;;;65.00;54.33;;;;;-0.98;61.33;101577.84;5035194;28;45424;-62
2022/12/18 02:28:51;;;;;;;;;65.67;52.67;;;;;-1.03;60.66;101575.13;5036817;28;46901;-60
2022/12/18 02:31:23;;;;;;;;;60.00;50.67;;;;;-1.13;61.00;101570.53;5036863;28;45514;-57
2022/12/18 02:33:52;;;;;;;;;64.00;52.33;;;;;-1.11;61.86;101577.50;5037110;28;45559;-55
2022/12/18 02:36:21;;;;;;;;;67.67;56.00;;;;;-1.14;60.87;101567.09;5036914;28;45380;-58
2022/12/18 02:38:47;;;;;;;;;69.67;53.00;;;;;-1.21;60.83;101565.19;5022872;28;46702;-58
2022/12/18 02:41:15;;;;;;;;;67.00;52.00;;;;;-1.20;60.95;101571.22;5036668;28;45474;-61
2022/12/18 02:43:53;;;;;;;;;59.33;51.67;;;;;-1.22;61.44;101566.00;5036174;28;45424;-59
2022/12/18 02:46:35;;;;;;;;;64.33;53.00;;;;;-1.21;61.16;101561.72;5036885;28;45373;-60
2022/12/18 02:49:27;;;;;;;;;63.67;51.67;;;;;-1.19;61.71;101565.22;5023180;28;45602;-59
2022/12/18 02:52:01;;;;;;;;;64.00;50.67;;;;;-1.17;62.15;101558.41;5025026;28;45457;-59
2022/12/18 02:54:44;;;;;;;;;63.00;53.33;;;;;-1.18;60.95;101560.09;5034643;28;45465;-61
2022/12/18 02:57:20;;;;;;;;;61.00;52.33;;;;;-1.17;61.27;101548.94;5036505;28;45369;-58
2022/12/18 02:59:58;;;;;;;;;62.67;53.00;;;;;-1.16;62.18;101549.81;5030588;28;46688;-57
2022/12/18 03:02:49;;;;;;;;;60.33;49.33;;;;;-1.18;62.20;101549.78;5036265;28;45459;-58
2022/12/18 03:05:21;;;;;;;;;64.33;55.00;;;;;-1.20;62.32;101542.81;5029336;28;45538;-61
2022/12/18 03:07:57;;;;;;;;;62.33;53.33;;;;;-1.17;61.50;101550.66;5028801;28;45438;-61
2022/12/18 03:10:32;;;;;;;;;66.33;54.00;;;;;-1.18;61.34;101547.19;5036160;28;45566;-59
2022/12/18 03:13:05;;;;;;;;;63.67;52.00;;;;;-1.17;61.73;101537.75;5035988;28;45468;-59
2022/12/18 03:15:43;;;;;;;;;65.67;55.00;;;;;-1.23;61.27;101530.72;5035056;28;45511;-60
2022/12/18 03:18:24;;;;;;;;;58.33;49.33;;;;;-1.23;61.03;101540.16;5021921;28;45422;-58
2022/12/18 03:20:53;;;;;;;;;64.00;52.00;;;;;-1.20;61.23;101542.81;5035855;28;45526;-62
2022/12/18 03:23:24;;;;;;;;;67.33;50.00;;;;;-1.16;61.81;101549.81;5036165;28;45381;-60
2022/12/18 03:25:55;;;;;;;;;65.67;55.00;;;;;-1.20;61.91;101548.84;5036079;28;45562;-59
2022/12/18 03:28:22;;;;;;;;;59.00;51.67;;;;;-1.18;61.78;101554.09;5036215;28;45298;-59
2022/12/18 03:30:52;;;;;;;;;62.33;50.33;;;;;-1.17;61.56;101548.06;5034270;28;45589;-61
2022/12/18 03:33:26;;;;;;;;;62.67;52.67;;;;;-1.09;61.80;101550.88;5035705;28;45430;-59
2022/12/18 03:35:51;;;;;;;;;66.33;52.67;;;;;-1.10;61.10;101547.41;5034962;28;45498;-58
2022/12/18 03:38:17;;;;;;;;;66.33;49.67;;;;;-1.07;61.13;101546.63;5025327;28;45439;-55
2022/12/18 03:40:58;;;;;;;;;66.67;52.67;;;;;-1.06;60.97;101551.81;5035892;28;46152;-59
2022/12/18 03:43:49;;;;;;;;;67.33;54.00;;;;;-1.02;61.38;101551.09;5032835;28;45530;-57
2022/12/18 03:46:24;;;;;;;;;66.33;49.67;;;;;-1.06;61.52;101543.22;5036371;28;45567;-60
2022/12/18 03:49:05;;;;;;;;;64.00;53.00;;;;;-1.01;61.04;101546.78;5031912;28;45309;-60
2022/12/18 03:51:43;;;;;;;;;69.33;50.00;;;;;-1.00;61.67;101544.22;5027386;28;45586;-61
2022/12/18 03:54:10;;;;;;;;;68.33;52.00;;;;;-0.99;61.12;101527.06;5035032;28;45540;-59
2022/12/18 03:56:43;;;;;;;;;66.00;54.00;;;;;-1.01;61.76;101531.31;5035611;28;45435;-60
2022/12/18 03:59:13;;;;;;;;;60.67;49.00;;;;;-1.08;61.88;101531.97;5032778;28;45475;-61
2022/12/18 04:01:43;;;;;;;;;56.33;50.00;;;;;-1.08;61.66;101521.63;5025023;28;46243;-60
2022/12/18 04:04:10;;;;;;;;;63.67;51.67;;;;;-1.19;60.98;101498.97;5029914;28;45405;-59
2022/12/18 04:06:38;;;;;;;;;62.67;53.00;;;;;-1.16;61.22;101498.19;5034712;28;45334;-58
2022/12/18 04:09:04;;;;;;;;;67.00;53.67;;;;;-1.10;62.02;101513.88;5031199;28;45555;-60
2022/12/18 04:11:30;;;;;;;;;59.67;46.67;;;;;-1.09;62.02;101505.28;5033327;28;46225;-58
2022/12/18 04:13:57;;;;;;;;;63.33;51.00;;;;;-1.12;60.69;101492.28;5044067;28;45423;-61
2022/12/18 04:16:23;;;;;;;;;63.33;51.33;;;;;-1.06;60.97;101496.75;5034539;28;45519;-57
2022/12/18 04:18:49;;;;;;;;;60.00;47.00;;;;;-1.05;60.75;101495.91;5035515;28;45420;-58
2022/12/18 04:21:14;;;;;;;;;64.33;53.00;;;;;-1.02;60.39;101514.03;5035013;28;45592;-62
2022/12/18 04:23:39;;;;;;;;;51.67;44.33;;;;;-1.11;61.35;101505.22;5035275;28;45324;-56
2022/12/18 04:26:05;;;;;;;;;69.33;55.67;;;;;-1.16;60.87;101498.19;5033283;28;45437;-61
2022/12/18 04:28:30;;;;;;;;;62.00;49.25;;;;;-1.15;62.03;101518.03;5034706;28;45425;-58
2022/12/18 04:30:55;;;;;;;;;64.00;54.00;;;;;-1.23;61.28;101510.06;5034268;28;45509;-58
2022/12/18 04:33:21;;;;;;;;;61.67;50.67;;;;;-1.25;62.22;101508.28;5034853;28;45452;-61
2022/12/18 04:35:46;;;;;;;;;56.33;49.33;;;;;-1.31;62.29;101508.97;5034473;28;45454;-56
2022/12/18 04:38:12;;;;;;;;;65.00;50.00;;;;;-1.31;61.80;101513.28;5028753;28;45575;-54
2022/12/18 04:40:38;;;;;;;;;68.33;53.00;;;;;-1.38;62.36;101507.91;5034110;28;45555;-60
2022/12/18 04:43:04;;;;;;;;;62.67;51.00;;;;;-1.41;62.20;101510.41;5034276;28;45641;-56
2022/12/18 04:45:33;;;;;;;;;63.00;48.67;;;;;-1.38;61.65;101523.41;5024025;28;46508;-59
2022/12/18 04:47:59;;;;;;;;;66.33;53.67;;;;;-1.35;62.78;101526.06;5035135;28;45550;-57
2022/12/18 04:50:25;;;;;;;;;60.67;50.00;;;;;-1.35;62.24;101517.44;5032530;28;48689;-58
2022/12/18 04:52:50;;;;;;;;;59.67;50.00;;;;;-1.34;61.98;101521.81;5034694;28;45393;-59
2022/12/18 04:55:15;;;;;;;;;70.00;53.00;;;;;-1.27;62.46;101533.16;5034405;28;45448;-59
2022/12/18 04:57:41;;;;;;;;;54.67;46.33;;;;;-1.31;61.73;101516.72;5034727;28;45360;-58
2022/12/18 05:00:07;;;;;;;;;63.33;53.67;;;;;-1.26;61.58;101516.81;5033319;28;48083;-59
2022/12/18 05:02:32;;;;;;;;;60.00;49.33;;;;;-1.23;62.46;101522.09;5034642;28;45372;-59
2022/12/18 05:04:58;;;;;;;;;66.00;51.67;;;;;-1.24;61.98;101515.16;5029595;28;45634;-59
2022/12/18 05:07:24;;;;;;;;;66.33;55.33;;;;;-1.23;62.02;101527.25;5029516;28;45669;-57
2022/12/18 05:09:49;;;;;;;;;68.33;55.00;;;;;-1.36;61.57;101510.56;5033863;28;45432;-58
2022/12/18 05:12:14;;;;;;;;;66.33;51.00;;;;;-1.36;61.43;101536.38;5034388;28;45425;-57
2022/12/18 05:14:40;;;;;;;;;67.33;54.67;;;;;-1.44;62.76;101525.81;5034627;28;45451;-58
2022/12/18 05:17:05;;;;;;;;;60.33;52.00;;;;;-1.40;62.06;101529.34;5029195;28;45678;-58
2022/12/18 05:19:31;;;;;;;;;60.67;49.33;;;;;-1.33;61.60;101533.88;5033315;28;45580;-60
2022/12/18 05:21:56;;;;;;;;;61.33;51.67;;;;;-1.26;61.60;101534.91;5034233;28;45409;-57
2022/12/18 05:24:21;;;;;;;;;61.00;49.33;;;;;-1.23;61.83;101538.47;5033355;28;45433;-60
2022/12/18 05:26:47;;;;;;;;;60.67;49.33;;;;;-1.23;61.29;101533.28;5034546;28;45402;-59
2022/12/18 05:29:12;;;;;;;;;60.67;47.33;;;;;-1.25;61.64;101546.97;5033315;28;46386;-59
2022/12/18 05:31:38;;;;;;;;;62.00;50.67;;;;;-1.29;61.43;101542.56;5023837;28;45436;-61
2022/12/18 05:34:04;;;;;;;;;51.33;47.00;;;;;-1.30;61.59;101546.84;5029958;28;45513;-59
2022/12/18 05:36:29;;;;;;;;;64.67;51.00;;;;;-1.25;61.36;101555.59;5033540;28;45404;-58
2022/12/18 05:38:54;;;;;;;;;69.00;53.33;;;;;-1.26;61.86;101550.38;5032822;28;47769;-58
2022/12/18 05:41:20;;;;;;;;;62.67;50.33;;;;;-1.26;61.61;101558.13;5034659;28;45357;-57
2022/12/18 05:43:45;;;;;;;;;62.67;49.33;;;;;-1.27;61.73;101556.38;5037931;28;45457;-57
2022/12/18 05:46:17;;;;;;;;;63.33;53.00;;;;;-1.25;61.75;101550.44;5036727;28;45497;-60
2022/12/18 05:48:42;;;;;;;;;53.00;46.50;;;;;-1.23;62.38;101546.19;5021436;28;46222;-58
2022/12/18 05:51:11;;;;;;;;;58.00;49.33;;;;;-1.21;61.75;101539.38;5032957;28;45460;-60
2022/12/18 05:53:37;;;;;;;;;61.67;46.33;;;;;-1.27;61.43;101528.88;5031102;28;45495;-60
2022/12/18 05:56:05;;;;;;;;;61.00;50.33;;;;;-1.25;61.60;101532.38;5036943;28;45380;-57
2022/12/18 05:58:31;;;;;;;;;66.00;55.33;;;;;-1.16;62.03;101527.44;5037469;28;46542;-61
2022/12/18 06:00:57;;;;;;;;;58.67;50.67;;;;;-1.18;61.17;101516.22;5031854;28;45516;-60
2022/12/18 06:03:22;;;;;;;;;59.00;50.00;;;;;-1.21;62.36;101511.00;5035760;28;45459;-58
2022/12/18 06:05:48;;;;;;;;;66.00;53.00;;;;;-1.23;61.93;101504.03;5036867;28;45574;-60
2022/12/18 06:08:13;;;;;;;;;59.67;49.67;;;;;-1.28;62.06;101503.91;5036217;28;45410;-61
2022/12/18 06:10:39;;;;;;;;;57.00;49.33;;;;;-1.31;61.35;101506.41;5037101;28;45467;-61
2022/12/18 06:13:05;;;;;;;;;66.67;52.00;;;;;-1.33;61.75;101496.03;5037209;28;45439;-58
2022/12/18 06:15:31;;;;;;;;;62.67;51.33;;;;;-1.25;61.43;101516.88;5036824;28;45427;-56
2022/12/18 06:17:56;;;;;;;;;66.67;53.33;;;;;-1.21;61.10;101511.00;5036830;28;45619;-59
2022/12/18 06:20:22;;;;;;;;;51.00;47.00;;;;;-1.25;60.97;101509.16;5028560;28;45388;-59
2022/12/18 06:22:47;;;;;;;;;64.67;50.67;;;;;-1.27;61.54;101513.38;5036904;28;45388;-57
2022/12/18 06:25:13;;;;;;;;;62.33;51.67;;;;;-1.22;62.03;101518.69;5037127;28;45341;-60
2022/12/18 06:27:39;;;;;;;;;57.75;47.75;;;;;-1.25;61.89;101516.03;5035526;28;46971;-58
2022/12/18 06:30:05;;;;;;;;;58.33;50.00;;;;;-1.31;62.01;101511.56;5028319;28;45444;-59
2022/12/18 06:32:30;;;;;;;;;59.50;50.50;;;;;-1.30;61.40;101520.19;5028835;28;45456;-56
2022/12/18 06:34:56;;;;;;;;;56.00;47.25;;;;;-1.35;61.09;101517.44;5037003;28;45424;-59
2022/12/18 06:37:23;;;;;;;;;67.00;54.00;;;;;-1.38;61.88;101517.38;5035279;28;47213;-59
2022/12/18 06:39:49;;;;;;;;;59.00;52.00;;;;;-1.38;60.91;101513.09;5037105;28;45298;-62
2022/12/18 06:42:14;;;;;;;;;57.67;48.33;;;;;-1.36;61.78;101511.44;5037000;28;45948;-58
2022/12/18 06:44:39;;;;;;;;;59.00;49.00;;;;;-1.34;61.64;101508.91;5037572;28;45554;-60
2022/12/18 06:47:05;;;;;;;;;48.67;45.33;;;;;-1.30;61.93;101509.84;5030101;28;46566;-58
2022/12/18 06:49:30;;;;;;;;;60.67;50.67;;;;;-1.32;60.68;101512.38;5027946;28;45363;-55
2022/12/18 06:51:55;;;;;;;;;66.00;51.00;;;;;-1.31;61.76;101516.72;5030877;28;45366;-56
2022/12/18 06:54:21;;;;;;;;;66.67;51.67;;;;;-1.31;61.52;101502.97;5031576;28;45510;-61
2022/12/18 06:56:46;;;;;;;;;63.67;50.00;;;;;-1.30;61.17;101499.53;5036293;28;46610;-57
2022/12/18 06:59:12;;;;;;;;;55.33;48.33;;;;;-1.29;62.04;101498.69;5030928;28;45931;-58
2022/12/18 07:01:38;;;;;;;;;64.67;49.33;;;;;-1.34;60.84;101498.59;5026642;28;45441;-58
2022/12/18 07:04:03;;;;;;;;;51.33;44.33;;;;;-1.42;60.66;101476.84;5034402;28;45612;-59
2022/12/18 07:06:28;;;;;;;;;53.75;45.50;;;;;-1.40;61.19;101488.97;5034434;28;46379;-59
2022/12/18 07:08:54;;;;;;;;;62.33;50.33;;;;;-1.42;61.73;101492.34;5034968;28;45443;-59
2022/12/18 07:11:20;;;;;;;;;60.67;49.33;;;;;-1.58;61.79;101479.00;5035887;28;45479;-58
2022/12/18 07:13:46;;;;;;;;;59.00;47.67;;;;;-1.52;61.18;101488.63;5036026;28;45464;-58
2022/12/18 07:16:14;;;;;;;;;58.67;47.33;;;;;-1.55;61.27;101485.94;5035802;28;46449;-58
2022/12/18 07:18:39;;;;;;;;;60.33;50.67;;;;;-1.57;61.72;101483.31;5036230;28;45440;-59
2022/12/18 07:21:07;;;;;;;;;65.67;52.33;;;;;-1.62;61.29;101474.56;5026705;28;45539;-58
2022/12/18 07:23:34;;;;;;;;;61.67;53.00;;;;;-1.58;61.12;101471.25;5036503;28;45623;-57
2022/12/18 07:26:04;;;;;;;;;43.67;34.67;;;;;-1.60;60.86;101475.50;5035065;28;45559;-56
2022/12/18 07:28:31;;;;;;;;;55.67;49.00;;;;;-1.62;61.23;101484.00;5016419;28;45449;-56
2022/12/18 07:30:57;;;;;;;;;68.67;53.33;;;;;-1.72;60.96;101475.16;5029914;28;45441;-58
2022/12/18 07:33:22;;;;;;;;;65.00;50.67;;;;;-1.73;62.19;101481.13;5034270;28;45421;-58
2022/12/18 07:35:47;;;;;;;;;57.33;49.00;;;;;-1.77;61.95;101481.88;5036044;28;46333;-60
2022/12/18 07:38:13;;;;;;;;;61.67;50.33;;;;;-1.73;61.61;101488.88;5035711;28;45443;-58
2022/12/18 07:40:38;;;;;;;;;61.33;50.33;;;;;-1.78;61.77;101499.03;5018535;28;45724;-61
2022/12/18 07:43:03;;;;;;;;;63.67;49.33;;;;;-1.77;62.30;101484.47;5034111;28;45463;-59
2022/12/18 07:45:29;;;;;;;;;61.00;49.33;;;;;-1.71;61.71;101514.72;5035900;28;46395;-60
2022/12/18 07:47:54;;;;;;;;;61.33;50.33;;;;;-1.75;61.61;101515.44;5034384;28;45463;-61
2022/12/18 07:50:19;;;;;;;;;63.33;52.00;;;;;-1.74;61.72;101512.03;5021552;28;45613;-58
2022/12/18 07:52:45;;;;;;;;;52.67;46.00;;;;;-1.68;61.47;101518.25;5033764;28;45468;-57
2022/12/18 07:55:10;;;;;;;;;62.33;50.67;;;;;-1.67;61.80;101506.22;5035644;28;46366;-57
2022/12/18 07:57:35;;;;;;;;;50.33;47.33;;;;;-1.61;61.30;101503.84;5035209;28;45425;-56
2022/12/18 08:00:01;;;;;;;;;60.00;51.33;;;;;-1.63;61.77;101498.63;5035908;28;45488;-60
2022/12/18 08:02:26;;;;;;;;;63.00;49.00;;;;;-1.53;61.35;101506.59;5033900;28;45650;-58
2022/12/18 08:04:51;;;;;;;;;64.00;51.00;;;;;-1.60;60.69;101490.09;5035326;28;45418;-58
2022/12/18 08:07:17;;;;;;;;;56.67;45.67;;;;;-1.58;61.31;101489.31;5033188;28;45459;-58
2022/12/18 08:09:42;;;;;;;;;58.00;51.67;;;;;-1.74;61.10;101460.47;5032435;28;45420;-60
2022/12/18 08:12:07;;;;;;;;;53.67;49.00;;;;;-1.61;60.69;101486.66;5035542;28;45384;-60
2022/12/18 08:14:33;;;;;;;;;64.33;51.00;;;;;-1.62;61.01;101487.47;5034983;28;45526;-58
2022/12/18 08:16:58;;;;;;;;;63.67;51.00;;;;;-1.62;61.46;101482.31;5034652;28;45464;-58
2022/12/18 08:19:23;;;;;;;;;61.00;51.67;;;;;-1.64;60.90;101494.31;5034672;28;45732;-60
2022/12/18 08:21:49;;;;;;;;;59.67;48.67;;;;;-1.69;61.59;101497.56;5035339;28;45312;-57
2022/12/18 08:24:14;;;;;;;;;65.00;47.67;;;;;-1.70;61.42;101509.59;5034882;28;46425;-58
2022/12/18 08:26:40;;;;;;;;;66.00;52.00;;;;;-1.66;61.97;101505.41;5034096;28;45384;-58
2022/12/18 08:29:05;;;;;;;;;55.00;50.33;;;;;-1.64;61.43;101512.38;5035486;28;45306;-58
2022/12/18 08:31:30;;;;;;;;;60.67;48.33;;;;;-1.63;61.27;101518.38;5022846;28;45538;-61
2022/12/18 08:33:57;;;;;;;;;57.67;49.00;;;;;-1.62;61.14;101518.41;5034019;28;45662;-61
2022/12/18 08:36:23;;;;;;;;;56.67;50.33;;;;;-1.66;61.35;101532.06;5024244;28;45471;-60
2022/12/18 08:38:49;;;;;;;;;55.33;45.67;;;;;-1.64;60.76;101525.25;5032849;28;45397;-59
2022/12/18 08:41:16;;;;;;;;;54.67;49.00;;;;;-1.59;61.05;101530.53;5025787;28;45635;-59
2022/12/18 08:46:30;;;;;;;;;57.67;49.00;;;;;-1.61;61.10;101516.75;5035623;28;45463;-59
2022/12/18 08:48:56;;;;;;;;;55.33;49.33;;;;;-1.60;61.29;101521.91;5031575;28;45468;-58
2022/12/18 08:51:22;;;;;;;;;65.33;53.33;;;;;-1.56;60.56;101541.81;5034459;28;45351;-58
2022/12/18 08:53:47;;;;;;;;;51.75;44.25;;;;;-1.59;61.21;101538.25;5034675;28;45379;-60
2022/12/18 08:56:14;;;;;;;;;62.67;51.67;;;;;-1.57;61.00;101552.09;5034945;28;45377;-60
2022/12/18 08:58:40;;;;;;;;;57.33;48.33;;;;;-1.56;61.48;101556.41;5033224;28;45432;-59
2022/12/18 09:01:11;;;;;;;;;69.00;54.33;;;;;-1.63;61.42;101545.03;5033987;28;45695;-58
2022/12/18 09:03:38;;;;;;;;;56.00;47.33;;;;;-1.57;61.08;101546.94;5034495;28;46354;-58
2022/12/18 09:06:04;;;;;;;;;65.67;49.00;;;;;-1.52;60.65;101527.31;5033869;28;45404;-57
2022/12/18 09:08:29;;;;;;;;;57.00;50.33;;;;;-1.57;61.70;101529.75;5030240;28;45502;-62
2022/12/18 09:10:55;;;;;;;;;64.67;55.67;;;;;-1.57;60.70;101516.84;5031163;28;45524;-59
2022/12/18 09:13:21;;;;;;;;;56.00;47.67;;;;;-1.52;60.83;101519.56;5034589;28;46243;-60
2022/12/18 09:15:49;;;;;;;;;63.67;52.33;;;;;-1.45;60.74;101526.66;5034845;28;45555;-57
2022/12/18 09:18:16;;;;;;;;;59.33;49.67;;;;;-1.41;61.87;101520.75;5037524;28;45465;-58
2022/12/18 09:20:42;;;;;;;;;68.00;53.67;;;;;-1.34;61.29;101521.81;5038174;28;45616;-57
2022/12/18 09:23:08;;;;;;;;;58.00;49.67;;;;;-1.28;60.73;101532.28;5036844;28;46166;-58
2022/12/18 09:25:35;;;;;;;;;65.33;52.00;;;;;-1.29;61.36;101533.13;5028617;28;45408;-58
2022/12/18 09:28:03;;;;;;;;;64.33;52.33;;;;;-1.34;61.23;101527.84;5033337;28;45499;-57
2022/12/18 09:30:29;;;;;;;;;58.00;48.67;;;;;-1.38;61.59;101523.41;5030148;28;45387;-59
2022/12/18 09:32:54;;;;;;;;;61.67;49.67;;;;;-1.28;61.28;101526.25;5037744;28;45384;-61
2022/12/18 09:35:20;;;;;;;;;68.33;55.67;;;;;-1.33;61.07;101523.53;5038295;28;45430;-58
2022/12/18 09:37:45;;;;;;;;;52.67;45.67;;;;;-1.34;61.64;101519.22;5037641;28;45388;-59
2022/12/18 09:40:23;;;;;;;;;64.00;52.00;;;;;-1.36;61.16;101523.47;5037715;28;45629;-58
2022/12/18 09:42:56;;;;;;;;;65.00;51.00;;;;;-1.41;61.48;101513.00;5037370;28;45499;-58
2022/12/18 09:45:22;;;;;;;;;62.33;51.33;;;;;-1.36;61.30;101526.03;5032633;28;45388;-60
2022/12/18 09:47:51;;;;;;;;;64.33;51.33;;;;;-1.37;61.69;101513.94;5038016;28;45460;-60
2022/12/18 09:50:26;;;;;;;;;67.33;54.00;;;;;-1.29;61.24;101522.81;5029843;28;45467;-60
2022/12/18 09:52:57;;;;;;;;;65.33;53.00;;;;;-1.24;60.95;101518.63;5025207;28;45552;-60
2022/12/18 09:55:31;;;;;;;;;66.33;51.00;;;;;-1.18;61.06;101518.81;5034815;28;46072;-61
2022/12/18 09:58:13;;;;;;;;;63.67;51.00;;;;;-1.17;62.20;101504.19;5037980;28;45477;-60
2022/12/18 10:00:38;;;;;;;;;57.00;48.67;;;;;-1.17;62.02;101493.88;5036973;28;45396;-60
2022/12/18 10:03:10;;;;;;;;;63.25;50.00;;;;;-1.13;61.96;101503.44;5037416;28;45515;-60
2022/12/18 10:05:44;;;;;;;;;60.67;51.00;;;;;-1.06;61.35;101515.69;5037355;28;45423;-60
2022/12/18 10:08:10;;;;;;;;;63.67;53.67;;;;;-1.05;60.77;101509.66;5033850;28;45477;-60
2022/12/18 10:10:47;;;;;;;;;61.33;51.00;;;;;-1.06;61.62;101504.47;5023469;28;45470;-61
2022/12/18 10:13:41;;;;;;;;;62.67;50.00;;;;;-1.07;62.14;101505.34;5021343;28;45549;-61
2022/12/18 10:16:18;;;;;;;;;64.33;52.33;;;;;-1.03;62.14;101507.13;5024936;28;45499;-59
2022/12/18 10:18:50;;;;;;;;;65.00;52.00;;;;;-0.99;61.43;101511.56;5016158;28;45417;-59
2022/12/18 10:21:28;;;;;;;;;62.33;51.33;;;;;-1.11;61.62;101478.53;5024772;28;45381;-62
2022/12/18 10:23:53;;;;;;;;;64.00;49.33;;;;;-0.91;61.08;101503.19;5017865;28;46457;-63
2022/12/18 10:26:18;;;;;;;;;64.67;53.00;;;;;-0.90;60.64;101496.31;5032373;28;45516;-60
2022/12/18 10:28:44;;;;;;;;;63.33;53.00;;;;;-0.94;62.10;101485.03;5017421;28;45443;-60
2022/12/18 10:31:19;;;;;;;;;63.00;52.67;;;;;-0.87;61.64;101487.75;5017346;28;45408;-59
2022/12/18 10:33:44;;;;;;;;;66.00;53.67;;;;;-0.79;61.97;101489.69;5020365;28;46718;-60
2022/12/18 10:36:10;;;;;;;;;61.00;52.75;;;;;-0.76;61.95;101478.56;5020825;28;45179;-60
2022/12/18 10:38:35;;;;;;;;;62.00;51.33;;;;;-0.72;61.97;101481.28;5017736;28;45481;-61
2022/12/18 10:41:03;;;;;;;;;52.33;46.67;;;;;-0.63;60.78;101490.09;5017228;28;45508;-59
2022/12/18 10:43:40;;;;;;;;;65.33;52.00;;;;;-0.56;62.13;101495.44;5018060;28;45460;-58
2022/12/18 10:46:09;;;;;;;;;57.75;48.75;;;;;-0.50;61.48;101490.41;5018133;28;45557;-61
2022/12/18 10:48:55;;;;;;;;;57.67;48.67;;;;;-0.46;60.92;101481.94;5016518;28;45512;-60
2022/12/18 10:51:26;;;;;;;;;43.00;38.00;;;;;-0.46;60.28;101481.03;5026382;28;45363;-61
2022/12/18 10:54:15;;;;;;;;;62.25;49.50;;;;;-0.43;60.46;101475.06;5040752;28;45685;-60
2022/12/18 10:56:40;;;;;;;;;64.00;51.75;;;;;-0.38;60.51;101479.50;5037061;28;45555;-58
2022/12/18 10:59:12;;;;;;;;;64.00;52.33;;;;;-0.35;61.67;101478.69;5035781;28;45380;-59
2022/12/18 11:01:49;;;;;;;;;60.67;50.67;;;;;-0.32;61.93;101473.63;5037841;28;45399;-60
2022/12/18 11:04:19;;;;;;;;;69.00;56.33;;;;;-0.37;60.89;101458.00;5037076;28;46553;-60
2022/12/18 11:07:10;;;;;;;;;62.25;48.75;;;;;-0.32;60.70;101461.56;5037229;28;45397;-60
2022/12/18 11:09:37;;;;;;;;;64.67;52.00;;;;;-0.24;60.72;101475.53;5020667;28;45501;-59
2022/12/18 11:12:16;;;;;;;;;62.67;51.00;;;;;-0.29;61.51;101466.81;5029102;28;45398;-59
2022/12/18 11:14:45;;;;;;;;;56.25;47.50;;;;;-0.24;61.21;101462.63;5029858;28;46504;-60
2022/12/18 11:17:32;;;;;;;;;55.67;47.67;;;;;-0.21;60.74;101473.88;5023658;28;45227;-59
2022/12/18 11:20:23;;;;;;;;;64.67;54.33;;;;;-0.17;60.27;101462.75;5024309;28;45524;-59